Time;durP1;ratioP1;P1;durP2;ratioP2;P2;SDS_P1;SDS_P2;PMS_P1;PMS_P2;Temp;Humidity;BMP_temperature;BMP_pressure;BME280_temperature;BME280_humidity;BME280_pressure;Samples;Min_cycle;Max_cycle;Signal;HPM_P1;HPM_P2
2022/11/24 00:01:29;;;;;;;10.20;3.42;;;;;;;;;;5055767;28;20037;-80
2022/11/24 00:03:59;;;;;;;15.15;3.90;;;;;;;;;;5037975;28;20080;-80
2022/11/24 00:06:26;;;;;;;12.75;4.40;;;;;;;;;;5055657;28;20667;-80
2022/11/24 00:08:53;;;;;;;13.57;4.35;;;;;;;;;;5054742;28;20432;-80
2022/11/24 00:11:21;;;;;;;13.65;2.92;;;;;;;;;;5054911;28;20045;-80
2022/11/24 00:14:15;;;;;;;20.20;7.78;;;;;;;;;;5056610;28;20044;-80
2022/11/24 00:16:41;;;;;;;14.38;2.63;;;;;;;;;;5056278;28;20092;-80
2022/11/24 00:19:08;;;;;;;7.95;2.03;;;;;;;;;;5053637;28;20041;-81
2022/11/24 00:21:34;;;;;;;1.90;1.13;;;;;;;;;;5053394;28;20102;-80
2022/11/24 00:24:00;;;;;;;4.07;2.00;;;;;;;;;;5052380;28;20375;-80
2022/11/24 00:26:39;;;;;;;3.17;0.80;;;;;;;;;;5053471;28;20045;-81
2022/11/24 00:29:32;;;;;;;2.95;0.98;;;;;;;;;;5054445;28;20051;-80
2022/11/24 00:32:17;;;;;;;9.60;1.58;;;;;;;;;;5030129;28;20706;-81
2022/11/24 00:35:00;;;;;;;6.25;1.45;;;;;;;;;;5054327;28;20124;-81
2022/11/24 00:38:05;;;;;;;5.07;1.67;;;;;;;;;;5051028;28;20079;-82
2022/11/24 00:41:09;;;;;;;6.38;1.38;;;;;;;;;;4951640;28;20065;-81
2022/11/24 00:43:53;;;;;;;9.60;2.75;;;;;;;;;;4883954;29;20053;-82
2022/11/24 00:46:37;;;;;;;6.85;2.80;;;;;;;;;;4884330;29;20539;-82
2022/11/24 00:49:21;;;;;;;12.00;2.45;;;;;;;;;;4883916;29;20136;-82
2022/11/24 00:52:05;;;;;;;9.00;3.15;;;;;;;;;;4871798;29;20757;-82
2022/11/24 00:55:09;;;;;;;7.18;1.83;;;;;;;;;;4888769;29;20129;-82
2022/11/24 00:57:53;;;;;;;9.18;2.75;;;;;;;;;;4828729;29;20051;-82
2022/11/24 01:00:37;;;;;;;13.82;2.22;;;;;;;;;;4830110;29;20437;-81
2022/11/24 01:03:27;;;;;;;4.80;1.40;;;;;;;;;;4832110;29;20452;-80
2022/11/24 01:06:20;;;;;;;7.93;1.88;;;;;;;;;;4842617;29;20802;-82
2022/11/24 01:09:05;;;;;;;7.80;1.73;;;;;;;;;;4842042;29;20178;-81
2022/11/24 01:17:57;;;;;;;6.45;2.33;;;;;;;;;;4865364;29;20049;-82
2022/11/24 01:20:26;;;;;;;11.60;2.40;;;;;;;;;;4894805;29;20048;-81
2022/11/24 01:23:19;;;;;;;10.90;2.28;;;;;;;;;;4902255;29;20067;-82
2022/11/24 01:26:03;;;;;;;15.35;3.10;;;;;;;;;;4903585;29;20056;-82
2022/11/24 01:28:38;;;;;;;8.25;2.78;;;;;;;;;;4923594;28;20584;-82
2022/11/24 01:31:31;;;;;;;8.65;2.53;;;;;;;;;;4952664;28;20102;-82
2022/11/24 01:34:15;;;;;;;12.55;2.13;;;;;;;;;;4980001;28;20564;-81
2022/11/24 01:37:09;;;;;;;10.10;1.75;;;;;;;;;;5020800;28;20064;-81
2022/11/24 01:40:14;;;;;;;5.97;2.20;;;;;;;;;;5026030;28;20598;-82
2022/11/24 01:46:12;;;;;;;8.02;1.83;;;;;;;;;;4952799;28;20090;-81
2022/11/24 01:48:56;;;;;;;5.47;1.58;;;;;;;;;;4950722;28;20130;-82
2022/11/24 01:52:01;;;;;;;8.25;2.05;;;;;;;;;;4950013;28;20050;-82
2022/11/24 01:58:30;;;;;;;15.55;3.22;;;;;;;;;;4846805;29;20084;-82
2022/11/24 02:04:08;;;;;;;13.82;3.88;;;;;;;;;;4787009;29;20044;-82
2022/11/24 02:06:53;;;;;;;14.27;4.10;;;;;;;;;;4812660;29;20050;-81
2022/11/24 02:13:11;;;;;;;7.53;1.60;;;;;;;;;;4820960;29;20544;-81
2022/11/24 02:15:46;;;;;;;18.63;3.55;;;;;;;;;;4807922;29;20060;-82
2022/11/24 02:18:39;;;;;;;11.55;2.38;;;;;;;;;;4864286;29;20064;-81
2022/11/24 02:21:33;;;;;;;9.07;3.75;;;;;;;;;;4911790;28;20131;-83
2022/11/24 02:24:37;;;;;;;9.68;2.50;;;;;;;;;;4911240;28;20061;-82
2022/11/24 02:27:22;;;;;;;9.00;2.80;;;;;;;;;;4909604;28;20051;-82
2022/11/24 02:30:15;;;;;;;12.43;2.63;;;;;;;;;;4880670;29;20147;-82
2022/11/24 02:32:42;;;;;;;14.98;4.80;;;;;;;;;;4893424;29;20162;-82
2022/11/24 02:35:09;;;;;;;11.55;2.95;;;;;;;;;;4908694;29;20048;-82
2022/11/24 02:37:35;;;;;;;11.10;3.35;;;;;;;;;;5007103;28;20279;-82
2022/11/24 02:40:01;;;;;;;14.15;2.42;;;;;;;;;;5062603;28;20064;-82
2022/11/24 02:42:29;;;;;;;13.35;2.60;;;;;;;;;;5043706;28;22220;-81
2022/11/24 02:44:57;;;;;;;15.32;3.38;;;;;;;;;;5062148;28;20033;-82
2022/11/24 02:47:23;;;;;;;18.48;3.35;;;;;;;;;;5058460;28;20625;-82
2022/11/24 02:49:49;;;;;;;10.38;3.83;;;;;;;;;;5062336;28;20903;-81
2022/11/24 02:52:16;;;;;;;17.58;2.97;;;;;;;;;;5060719;28;20033;-81
2022/11/24 02:54:42;;;;;;;7.28;2.63;;;;;;;;;;5037556;28;20830;-81
2022/11/24 02:57:08;;;;;;;6.60;2.72;;;;;;;;;;5059496;28;20147;-82
2022/11/24 02:59:34;;;;;;;12.40;2.53;;;;;;;;;;5045446;28;20033;-82
2022/11/24 03:02:00;;;;;;;6.90;1.88;;;;;;;;;;5062630;28;20048;-81
2022/11/24 03:04:26;;;;;;;14.07;2.28;;;;;;;;;;5061325;28;20041;-82
2022/11/24 03:06:53;;;;;;;13.35;4.25;;;;;;;;;;5060706;28;20042;-82
2022/11/24 03:09:19;;;;;;;12.40;3.05;;;;;;;;;;5055316;28;20065;-82
2022/11/24 03:11:45;;;;;;;12.13;2.85;;;;;;;;;;5055838;28;20140;-81
2022/11/24 03:14:11;;;;;;;9.35;3.05;;;;;;;;;;5055402;28;20531;-81
2022/11/24 03:16:37;;;;;;;14.75;2.53;;;;;;;;;;5052305;28;20041;-82
2022/11/24 03:19:03;;;;;;;9.55;2.47;;;;;;;;;;5054656;28;20053;-82
2022/11/24 03:21:29;;;;;;;12.45;3.42;;;;;;;;;;5036577;28;20080;-81
2022/11/24 03:23:55;;;;;;;10.10;2.78;;;;;;;;;;5055336;28;20041;-81
2022/11/24 03:26:22;;;;;;;16.98;3.60;;;;;;;;;;5051803;28;20043;-82
2022/11/24 03:28:48;;;;;;;7.50;2.10;;;;;;;;;;5053750;28;20140;-82
2022/11/24 03:31:14;;;;;;;9.30;1.73;;;;;;;;;;5054707;28;20033;-82
2022/11/24 03:33:41;;;;;;;9.65;3.42;;;;;;;;;;5053799;28;20051;-81
2022/11/24 03:36:07;;;;;;;6.72;2.40;;;;;;;;;;5056235;28;20049;-82
2022/11/24 03:38:33;;;;;;;10.88;2.13;;;;;;;;;;5051443;28;20037;-81
2022/11/24 03:40:59;;;;;;;6.88;1.88;;;;;;;;;;5069210;28;20037;-81
2022/11/24 03:43:25;;;;;;;5.03;1.67;;;;;;;;;;5059562;28;20041;-82
2022/11/24 03:45:51;;;;;;;10.02;2.08;;;;;;;;;;5053058;28;20140;-83
2022/11/24 03:48:21;;;;;;;6.45;2.20;;;;;;;;;;5056961;28;20144;-81
2022/11/24 03:50:54;;;;;;;6.63;2.22;;;;;;;;;;5038677;28;20537;-82
2022/11/24 03:53:21;;;;;;;15.50;2.72;;;;;;;;;;5056032;28;20479;-82
2022/11/24 03:55:47;;;;;;;8.23;2.10;;;;;;;;;;5054305;28;20049;-81
2022/11/24 03:58:13;;;;;;;8.75;1.95;;;;;;;;;;5053972;28;20037;-81
2022/11/24 04:00:39;;;;;;;9.85;3.00;;;;;;;;;;5052043;28;20037;-82
2022/11/24 04:03:05;;;;;;;11.13;3.35;;;;;;;;;;5056717;28;20075;-82
2022/11/24 04:05:32;;;;;;;10.93;3.38;;;;;;;;;;5056077;28;20037;-81
2022/11/24 04:08:02;;;;;;;17.30;2.15;;;;;;;;;;5038244;28;20124;-82
2022/11/24 04:10:29;;;;;;;5.03;1.90;;;;;;;;;;5054625;28;20079;-82
2022/11/24 04:12:55;;;;;;;7.50;3.00;;;;;;;;;;5053943;28;20041;-82
2022/11/24 04:15:21;;;;;;;12.65;4.22;;;;;;;;;;5036383;28;20041;-81
2022/11/24 04:17:48;;;;;;;9.77;2.38;;;;;;;;;;5036697;28;20502;-81
2022/11/24 04:20:14;;;;;;;14.40;3.05;;;;;;;;;;5054660;28;20426;-82
2022/11/24 04:22:41;;;;;;;7.93;1.88;;;;;;;;;;5037675;28;20049;-82
2022/11/24 04:25:08;;;;;;;9.43;2.05;;;;;;;;;;5054517;28;20140;-81
2022/11/24 04:27:34;;;;;;;6.32;1.85;;;;;;;;;;5029751;28;20079;-82
2022/11/24 04:30:01;;;;;;;15.55;2.25;;;;;;;;;;5037376;28;20043;-82
2022/11/24 04:32:27;;;;;;;9.05;2.40;;;;;;;;;;5035827;28;20119;-81
2022/11/24 04:34:53;;;;;;;10.00;2.40;;;;;;;;;;5053513;28;20511;-81
2022/11/24 04:37:19;;;;;;;9.50;1.95;;;;;;;;;;5052919;28;20515;-81
2022/11/24 04:39:45;;;;;;;16.77;3.08;;;;;;;;;;5055062;28;20033;-81
2022/11/24 04:42:11;;;;;;;6.97;2.25;;;;;;;;;;5053750;28;20593;-81
2022/11/24 04:44:38;;;;;;;4.50;1.95;;;;;;;;;;5035828;28;20390;-82
2022/11/24 04:47:04;;;;;;;8.63;2.10;;;;;;;;;;5036527;28;20260;-81
2022/11/24 04:49:30;;;;;;;8.73;2.60;;;;;;;;;;5053187;28;20067;-81
2022/11/24 04:51:56;;;;;;;8.75;2.92;;;;;;;;;;5054904;28;20041;-82
2022/11/24 04:54:22;;;;;;;5.75;2.60;;;;;;;;;;5052930;28;20164;-81
2022/11/24 04:56:52;;;;;;;6.45;2.17;;;;;;;;;;5035791;28;20037;-82
2022/11/24 04:59:18;;;;;;;6.57;2.55;;;;;;;;;;5029896;28;20033;-82
2022/11/24 05:01:45;;;;;;;19.02;3.58;;;;;;;;;;5049900;28;20598;-81
2022/11/24 05:04:12;;;;;;;13.48;3.42;;;;;;;;;;5053462;28;20103;-81
2022/11/24 05:06:39;;;;;;;6.93;2.75;;;;;;;;;;5035129;28;20544;-81
2022/11/24 05:09:05;;;;;;;14.27;3.60;;;;;;;;;;5035274;28;20041;-81
2022/11/24 05:11:32;;;;;;;13.10;3.05;;;;;;;;;;5050270;28;20514;-81
2022/11/24 05:13:58;;;;;;;6.78;2.53;;;;;;;;;;5028680;28;20141;-81
2022/11/24 05:16:24;;;;;;;14.00;4.18;;;;;;;;;;5052887;28;20467;-83
2022/11/24 05:18:50;;;;;;;7.30;2.50;;;;;;;;;;5052034;28;20056;-82
2022/11/24 05:21:16;;;;;;;13.05;3.08;;;;;;;;;;5037377;28;20515;-82
2022/11/24 05:23:42;;;;;;;9.80;4.07;;;;;;;;;;5034380;28;20036;-81
2022/11/24 05:26:08;;;;;;;8.32;2.13;;;;;;;;;;5052928;28;20970;-82
2022/11/24 05:28:34;;;;;;;19.45;3.25;;;;;;;;;;5053520;28;20045;-82
2022/11/24 05:31:01;;;;;;;14.27;3.40;;;;;;;;;;5028804;28;20037;-82
2022/11/24 05:33:28;;;;;;;9.57;2.53;;;;;;;;;;5052701;28;20037;-82
2022/11/24 05:35:55;;;;;;;10.30;2.42;;;;;;;;;;5053578;28;20079;-81
2022/11/24 05:38:22;;;;;;;12.35;2.20;;;;;;;;;;5029529;28;20043;-81
2022/11/24 05:40:48;;;;;;;8.75;2.50;;;;;;;;;;5055356;28;20737;-81
2022/11/24 05:43:15;;;;;;;12.38;3.25;;;;;;;;;;5053103;28;20850;-81
2022/11/24 05:45:41;;;;;;;9.98;3.10;;;;;;;;;;5063098;28;20640;-81
2022/11/24 05:48:09;;;;;;;9.30;2.30;;;;;;;;;;5035839;28;20087;-82
2022/11/24 05:50:35;;;;;;;8.43;3.05;;;;;;;;;;5032956;28;20077;-81
2022/11/24 05:53:03;;;;;;;6.40;2.20;;;;;;;;;;5031112;28;20092;-82
2022/11/24 05:55:29;;;;;;;7.25;2.17;;;;;;;;;;5034041;28;20120;-81
2022/11/24 05:57:59;;;;;;;7.15;2.85;;;;;;;;;;5027938;28;20045;-81
2022/11/24 06:00:25;;;;;;;10.95;2.33;;;;;;;;;;5033769;28;21345;-81
2022/11/24 06:02:52;;;;;;;11.90;2.97;;;;;;;;;;5053750;28;20040;-81
2022/11/24 06:05:18;;;;;;;11.02;2.78;;;;;;;;;;5052600;28;20463;-81
2022/11/24 06:07:44;;;;;;;12.23;3.88;;;;;;;;;;5052755;28;20465;-82
2022/11/24 06:10:11;;;;;;;8.38;2.78;;;;;;;;;;5055211;28;20080;-81
2022/11/24 06:12:37;;;;;;;9.23;3.90;;;;;;;;;;5050856;28;20424;-81
2022/11/24 06:15:03;;;;;;;9.82;3.05;;;;;;;;;;5053860;28;20045;-82
2022/11/24 06:17:29;;;;;;;9.65;3.08;;;;;;;;;;5054871;28;20166;-82
2022/11/24 06:19:55;;;;;;;17.63;3.05;;;;;;;;;;5053712;28;20045;-81
2022/11/24 06:22:21;;;;;;;7.85;3.60;;;;;;;;;;5057147;28;20527;-82
2022/11/24 06:24:49;;;;;;;7.75;3.45;;;;;;;;;;5035116;28;20060;-82
2022/11/24 06:27:15;;;;;;;7.88;2.80;;;;;;;;;;5037213;28;20639;-83
2022/11/24 06:29:41;;;;;;;10.27;2.60;;;;;;;;;;5059905;28;20041;-81
2022/11/24 06:32:08;;;;;;;13.05;2.72;;;;;;;;;;5058969;28;20458;-81
2022/11/24 06:34:35;;;;;;;11.95;3.80;;;;;;;;;;5035305;28;20037;-81
2022/11/24 06:37:01;;;;;;;19.30;3.83;;;;;;;;;;5060702;28;20650;-81
2022/11/24 06:39:27;;;;;;;13.60;3.20;;;;;;;;;;5059959;28;20654;-81
2022/11/24 06:41:53;;;;;;;15.43;4.43;;;;;;;;;;5058020;28;20048;-82
2022/11/24 06:44:19;;;;;;;15.02;3.92;;;;;;;;;;5059797;28;20051;-81
2022/11/24 06:46:45;;;;;;;12.90;5.80;;;;;;;;;;5058901;28;20092;-81
2022/11/24 06:49:12;;;;;;;16.75;4.13;;;;;;;;;;5057312;28;20041;-82
2022/11/24 06:51:38;;;;;;;12.00;3.25;;;;;;;;;;5055901;28;20075;-80
2022/11/24 06:54:07;;;;;;;9.50;3.50;;;;;;;;;;5055559;28;20041;-80
2022/11/24 06:56:34;;;;;;;13.05;4.05;;;;;;;;;;5048641;28;20095;-79
2022/11/24 06:59:00;;;;;;;8.95;3.63;;;;;;;;;;5036823;28;20207;-80
2022/11/24 07:01:28;;;;;;;12.57;3.47;;;;;;;;;;5037077;28;20048;-80
2022/11/24 07:03:54;;;;;;;16.95;4.50;;;;;;;;;;5055444;28;20044;-79
2022/11/24 07:06:21;;;;;;;13.30;3.50;;;;;;;;;;5055679;28;20041;-79
2022/11/24 07:08:47;;;;;;;10.02;2.95;;;;;;;;;;5054851;28;20045;-81
2022/11/24 07:11:15;;;;;;;12.55;3.70;;;;;;;;;;5054341;28;20047;-79
2022/11/24 07:13:42;;;;;;;16.75;4.13;;;;;;;;;;5056289;28;20064;-79
2022/11/24 07:16:21;;;;;;;12.38;3.53;;;;;;;;;;5029500;28;20041;-79
2022/11/24 07:18:48;;;;;;;14.30;6.40;;;;;;;;;;5054827;28;20068;-79
2022/11/24 07:21:15;;;;;;;10.40;2.85;;;;;;;;;;5055332;28;20608;-78
2022/11/24 07:23:41;;;;;;;13.88;3.20;;;;;;;;;;5055457;28;20071;-79
2022/11/24 07:26:07;;;;;;;11.50;2.92;;;;;;;;;;5054830;28;20036;-79
2022/11/24 07:28:35;;;;;;;14.48;2.88;;;;;;;;;;5031117;28;20053;-79
2022/11/24 07:31:08;;;;;;;11.82;3.45;;;;;;;;;;5054544;28;20044;-79
2022/11/24 07:33:34;;;;;;;8.82;4.03;;;;;;;;;;5056378;28;20044;-79
2022/11/24 07:36:00;;;;;;;11.95;3.30;;;;;;;;;;5030767;28;20041;-79
2022/11/24 07:38:28;;;;;;;7.20;2.88;;;;;;;;;;5052753;28;20071;-80
2022/11/24 07:40:54;;;;;;;7.25;2.60;;;;;;;;;;5035797;28;20067;-79
2022/11/24 07:43:20;;;;;;;24.77;4.90;;;;;;;;;;5056057;28;20569;-80
2022/11/24 07:45:51;;;;;;;12.48;2.58;;;;;;;;;;5056739;28;20045;-79
2022/11/24 07:48:17;;;;;;;15.70;4.60;;;;;;;;;;5037678;28;20499;-79
2022/11/24 07:50:43;;;;;;;16.58;2.55;;;;;;;;;;5056555;28;20059;-81
2022/11/24 07:53:09;;;;;;;14.95;2.60;;;;;;;;;;5055088;28;20041;-80
2022/11/24 07:55:35;;;;;;;10.05;4.28;;;;;;;;;;5032078;28;20041;-80
2022/11/24 07:58:01;;;;;;;15.85;2.75;;;;;;;;;;5043688;28;20049;-80
2022/11/24 08:00:28;;;;;;;12.60;1.95;;;;;;;;;;5056314;28;20092;-79
2022/11/24 08:02:54;;;;;;;8.30;2.45;;;;;;;;;;5056886;28;20037;-79
2022/11/24 08:05:20;;;;;;;9.73;2.40;;;;;;;;;;5048899;28;20072;-80
2022/11/24 08:07:46;;;;;;;17.10;2.85;;;;;;;;;;5055713;28;20057;-79
2022/11/24 08:10:12;;;;;;;9.20;3.63;;;;;;;;;;5054419;28;20037;-80
2022/11/24 08:12:38;;;;;;;8.05;4.53;;;;;;;;;;5057387;28;20092;-79
2022/11/24 08:15:06;;;;;;;14.23;3.90;;;;;;;;;;5057560;28;20601;-79
2022/11/24 08:17:32;;;;;;;9.27;2.63;;;;;;;;;;5057366;28;20047;-80
2022/11/24 08:19:58;;;;;;;9.25;3.55;;;;;;;;;;5032366;28;20037;-79
2022/11/24 08:22:24;;;;;;;15.30;3.35;;;;;;;;;;5031537;28;20111;-79
2022/11/24 08:24:51;;;;;;;16.45;3.10;;;;;;;;;;5056965;28;20045;-79
2022/11/24 08:27:17;;;;;;;9.88;3.35;;;;;;;;;;5055110;28;20785;-79
2022/11/24 08:29:43;;;;;;;15.50;3.17;;;;;;;;;;5057318;28;20574;-79
2022/11/24 08:32:10;;;;;;;10.63;4.22;;;;;;;;;;5056908;28;20456;-80
2022/11/24 08:34:36;;;;;;;15.93;2.80;;;;;;;;;;5056309;28;20044;-80
2022/11/24 08:37:03;;;;;;;14.20;3.35;;;;;;;;;;5055568;28;20150;-80
2022/11/24 08:39:30;;;;;;;12.48;3.20;;;;;;;;;;5056770;28;20553;-79
2022/11/24 08:41:56;;;;;;;19.92;3.00;;;;;;;;;;5032627;28;20080;-79
2022/11/24 08:44:22;;;;;;;8.70;3.33;;;;;;;;;;5032361;28;20529;-81
2022/11/24 08:46:48;;;;;;;17.80;3.50;;;;;;;;;;5055180;28;20102;-78
2022/11/24 08:49:15;;;;;;;14.80;4.20;;;;;;;;;;5056457;28;20053;-79
2022/11/24 08:51:42;;;;;;;12.57;4.40;;;;;;;;;;5056627;28;20036;-80
2022/11/24 08:54:09;;;;;;;18.38;4.25;;;;;;;;;;5057983;28;20034;-79
2022/11/24 08:56:35;;;;;;;9.68;3.13;;;;;;;;;;5037318;28;20045;-78
2022/11/24 08:59:01;;;;;;;12.02;2.70;;;;;;;;;;5032005;28;20132;-80
2022/11/24 09:01:28;;;;;;;14.93;3.25;;;;;;;;;;5055700;28;20045;-79
2022/11/24 09:03:54;;;;;;;9.63;3.40;;;;;;;;;;5057586;28;20051;-79
2022/11/24 09:06:22;;;;;;;18.42;3.90;;;;;;;;;;5031144;28;20057;-79
2022/11/24 09:08:48;;;;;;;15.65;4.53;;;;;;;;;;5056012;28;20083;-78
2022/11/24 09:11:16;;;;;;;16.20;4.75;;;;;;;;;;5055320;28;20050;-79
2022/11/24 09:13:42;;;;;;;15.80;4.18;;;;;;;;;;5056180;28;20135;-80
2022/11/24 09:16:10;;;;;;;13.27;3.67;;;;;;;;;;5057043;28;20051;-79
2022/11/24 09:18:36;;;;;;;9.68;2.65;;;;;;;;;;5038290;28;20041;-79
2022/11/24 09:21:20;;;;;;;13.95;3.55;;;;;;;;;;5056123;28;20043;-79
2022/11/24 09:23:48;;;;;;;12.52;4.65;;;;;;;;;;5056247;28;20350;-79
2022/11/24 09:26:15;;;;;;;21.38;4.75;;;;;;;;;;5036520;28;20560;-79
2022/11/24 09:28:41;;;;;;;17.25;4.15;;;;;;;;;;5055743;28;20535;-79
2022/11/24 09:31:09;;;;;;;17.05;4.32;;;;;;;;;;5054575;28;20466;-79
2022/11/24 09:33:35;;;;;;;21.40;3.78;;;;;;;;;;5037818;28;20541;-79
2022/11/24 09:36:01;;;;;;;15.45;2.95;;;;;;;;;;5031284;28;20041;-79
2022/11/24 09:38:27;;;;;;;16.58;3.42;;;;;;;;;;5055045;28;20045;-79
2022/11/24 09:40:53;;;;;;;13.75;3.58;;;;;;;;;;5030038;28;20075;-79
2022/11/24 09:43:40;;;;;;;12.13;3.67;;;;;;;;;;5056629;28;20045;-79
2022/11/24 09:46:22;;;;;;;12.40;3.95;;;;;;;;;;5055766;28;20080;-79
2022/11/24 09:48:51;;;;;;;14.90;4.32;;;;;;;;;;5056025;28;20059;-79
2022/11/24 09:51:19;;;;;;;13.00;5.10;;;;;;;;;;5055279;28;20045;-80
2022/11/24 09:53:51;;;;;;;7.75;4.10;;;;;;;;;;5056630;28;20075;-78
2022/11/24 09:56:17;;;;;;;;;;;;;;;;;;5054374;28;20045;-79
2022/11/24 09:58:58;;;;;;;10.32;4.07;;;;;;;;;;5055970;28;20299;-79
2022/11/24 10:01:38;;;;;;;13.82;3.75;;;;;;;;;;5052832;28;20044;-79
2022/11/24 10:04:10;;;;;;;15.20;3.40;;;;;;;;;;5055896;28;20067;-79
2022/11/24 10:06:43;;;;;;;17.17;4.22;;;;;;;;;;5037191;28;20140;-79
2022/11/24 10:09:15;;;;;;;12.40;4.88;;;;;;;;;;5056242;28;20044;-79
2022/11/24 10:12:02;;;;;;;14.30;4.28;;;;;;;;;;5055481;28;20032;-79
2022/11/24 10:14:46;;;;;;;9.98;3.83;;;;;;;;;;5045890;28;20053;-79
2022/11/24 10:17:15;;;;;;;15.00;4.45;;;;;;;;;;5056378;28;20076;-79
2022/11/24 10:20:01;;;;;;;15.23;6.00;;;;;;;;;;5056273;28;20098;-79
2022/11/24 10:22:34;;;;;;;9.50;3.95;;;;;;;;;;5053659;28;20060;-79
2022/11/24 10:25:12;;;;;;;11.40;6.32;;;;;;;;;;5053147;28;20107;-78
2022/11/24 10:27:46;;;;;;;24.20;4.38;;;;;;;;;;5031210;28;20513;-80
2022/11/24 10:30:17;;;;;;;14.80;4.35;;;;;;;;;;5055948;28;20045;-78
2022/11/24 10:32:45;;;;;;;10.93;4.45;;;;;;;;;;5054497;28;20065;-78
2022/11/24 10:35:16;;;;;;;11.27;3.92;;;;;;;;;;5055100;28;20950;-78
2022/11/24 10:37:45;;;;;;;13.88;4.38;;;;;;;;;;5035666;28;21283;-80
2022/11/24 10:40:18;;;;;;;10.80;4.75;;;;;;;;;;5055662;28;20116;-80
2022/11/24 10:42:47;;;;;;;9.38;4.25;;;;;;;;;;5054935;28;20514;-79
2022/11/24 10:45:16;;;;;;;12.88;4.63;;;;;;;;;;5036942;28;20053;-79
2022/11/24 10:47:42;;;;;;;10.52;4.40;;;;;;;;;;5055079;28;20128;-78
2022/11/24 10:50:08;;;;;;;8.10;3.83;;;;;;;;;;5053011;28;20041;-79
2022/11/24 10:52:39;;;;;;;6.78;3.65;;;;;;;;;;5054512;28;20531;-79
2022/11/24 10:55:06;;;;;;;10.80;3.25;;;;;;;;;;5053115;28;20041;-79
2022/11/24 10:57:33;;;;;;;9.80;3.17;;;;;;;;;;5054624;28;20046;-78
2022/11/24 10:59:59;;;;;;;6.03;3.65;;;;;;;;;;5055066;28;20049;-79
2022/11/24 11:02:26;;;;;;;8.45;3.78;;;;;;;;;;5054901;28;20037;-79
2022/11/24 11:04:52;;;;;;;10.63;3.90;;;;;;;;;;5054965;28;20132;-75
2022/11/24 11:07:23;;;;;;;10.20;3.47;;;;;;;;;;5025984;28;20160;-75
2022/11/24 11:09:50;;;;;;;7.53;2.67;;;;;;;;;;5036849;28;20042;-75
2022/11/24 11:12:42;;;;;;;11.32;3.83;;;;;;;;;;5036674;28;20037;-75
2022/11/24 11:15:25;;;;;;;8.45;3.15;;;;;;;;;;5049316;28;20061;-75
2022/11/24 11:17:56;;;;;;;8.05;3.38;;;;;;;;;;5038452;28;20045;-75
2022/11/24 11:20:26;;;;;;;10.68;4.05;;;;;;;;;;5028220;28;20049;-76
2022/11/24 11:22:53;;;;;;;10.43;3.35;;;;;;;;;;5028216;28;20951;-74
2022/11/24 11:25:37;;;;;;;8.27;3.55;;;;;;;;;;5028390;28;20096;-75
2022/11/24 11:28:21;;;;;;;9.93;3.28;;;;;;;;;;5030544;28;20060;-75
2022/11/24 11:30:58;;;;;;;13.43;4.22;;;;;;;;;;5037577;28;20042;-75
2022/11/24 11:33:27;;;;;;;12.65;4.68;;;;;;;;;;5036328;28;20431;-75
2022/11/24 11:35:53;;;;;;;18.00;5.72;;;;;;;;;;5029430;28;20133;-75
2022/11/24 11:38:20;;;;;;;11.15;3.55;;;;;;;;;;5035765;28;20304;-75
2022/11/24 11:40:48;;;;;;;13.18;3.75;;;;;;;;;;5034859;28;20076;-75
2022/11/24 11:43:24;;;;;;;15.23;4.53;;;;;;;;;;5029785;28;20127;-75
2022/11/24 11:45:58;;;;;;;15.05;4.28;;;;;;;;;;5038468;28;20502;-75
2022/11/24 11:48:28;;;;;;;9.50;2.78;;;;;;;;;;5035725;28;20622;-74
2022/11/24 11:50:56;;;;;;;10.55;3.47;;;;;;;;;;5030165;28;20045;-75
2022/11/24 11:53:29;;;;;;;12.55;3.58;;;;;;;;;;5037275;28;20122;-76
2022/11/24 11:55:56;;;;;;;12.10;3.42;;;;;;;;;;5035877;28;20049;-75
2022/11/24 11:58:22;;;;;;;12.68;4.43;;;;;;;;;;5033466;28;20042;-74
2022/11/24 12:00:54;;;;;;;11.80;5.00;;;;;;;;;;5029209;28;20050;-75
2022/11/24 12:03:23;;;;;;;16.52;4.47;;;;;;;;;;5034829;28;20095;-75
2022/11/24 12:06:07;;;;;;;13.13;4.95;;;;;;;;;;5039448;28;20072;-75
2022/11/24 12:08:46;;;;;;;18.35;4.25;;;;;;;;;;5056205;28;20053;-74
2022/11/24 12:11:18;;;;;;;16.40;3.90;;;;;;;;;;5055346;28;20518;-74
2022/11/24 12:13:51;;;;;;;14.15;4.13;;;;;;;;;;5051983;28;20216;-74
2022/11/24 12:16:29;;;;;;;11.13;4.50;;;;;;;;;;5057404;28;20048;-75
2022/11/24 12:19:14;;;;;;;14.57;4.20;;;;;;;;;;5056019;28;20091;-75
2022/11/24 12:21:43;;;;;;;9.57;4.88;;;;;;;;;;5031711;28;20060;-74
2022/11/24 12:24:09;;;;;;;12.27;4.50;;;;;;;;;;5057691;28;20049;-76
2022/11/24 12:26:47;;;;;;;14.52;4.05;;;;;;;;;;5055126;28;20099;-76
2022/11/24 12:29:13;;;;;;;8.80;4.28;;;;;;;;;;5038586;28;20050;-75
2022/11/24 12:31:45;;;;;;;19.17;4.13;;;;;;;;;;5055367;28;20033;-75
2022/11/24 12:34:17;;;;;;;7.40;4.00;;;;;;;;;;5058371;28;20040;-76
2022/11/24 12:37:02;;;;;;;10.23;3.75;;;;;;;;;;5056998;28;20080;-75
2022/11/24 12:39:34;;;;;;;14.93;5.43;;;;;;;;;;5057874;28;20045;-77
2022/11/24 12:42:18;;;;;;;15.20;4.70;;;;;;;;;;5056805;28;20194;-75
2022/11/24 12:45:02;;;;;;;15.85;5.63;;;;;;;;;;5057404;28;20060;-75
2022/11/24 12:47:28;;;;;;;15.73;6.28;;;;;;;;;;5057342;28;20033;-75
2022/11/24 12:50:02;;;;;;;15.32;5.50;;;;;;;;;;5057410;28;20037;-74
2022/11/24 12:52:32;;;;;;;15.85;4.47;;;;;;;;;;5056629;28;20052;-74
2022/11/24 12:54:59;;;;;;;21.77;6.25;;;;;;;;;;5053228;28;20522;-75
2022/11/24 12:57:39;;;;;;;19.10;6.35;;;;;;;;;;5037631;28;20071;-75
2022/11/24 13:00:18;;;;;;;15.85;5.43;;;;;;;;;;5056510;28;20033;-76
2022/11/24 13:02:57;;;;;;;15.95;5.32;;;;;;;;;;5037555;28;20672;-75
2022/11/24 13:05:26;;;;;;;22.85;6.82;;;;;;;;;;5054441;28;20038;-74
2022/11/24 13:08:02;;;;;;;25.15;5.65;;;;;;;;;;5056570;28;20057;-74
2022/11/24 13:10:30;;;;;;;15.60;5.78;;;;;;;;;;5036596;28;20057;-74
2022/11/24 13:12:57;;;;;;;19.25;5.03;;;;;;;;;;5036455;28;20052;-74
2022/11/24 13:15:23;;;;;;;15.95;4.55;;;;;;;;;;5055540;28;20041;-75
2022/11/24 13:17:49;;;;;;;18.02;5.18;;;;;;;;;;5031389;28;20108;-75
2022/11/24 13:20:18;;;;;;;19.48;4.90;;;;;;;;;;5055249;28;20041;-75
2022/11/24 13:22:55;;;;;;;17.35;6.25;;;;;;;;;;5055612;28;20045;-74
2022/11/24 13:25:21;;;;;;;12.60;4.40;;;;;;;;;;5055653;28;20550;-74
2022/11/24 13:27:51;;;;;;;17.38;6.32;;;;;;;;;;5055124;28;20126;-75
2022/11/24 13:30:35;;;;;;;28.65;6.90;;;;;;;;;;5037497;28;20045;-75
2022/11/24 13:33:10;;;;;;;20.33;6.45;;;;;;;;;;5054151;28;20486;-74
2022/11/24 13:35:37;;;;;;;24.02;8.43;;;;;;;;;;5037087;28;20127;-74
2022/11/24 13:38:04;;;;;;;19.30;5.57;;;;;;;;;;5055156;28;20115;-75
2022/11/24 13:40:30;;;;;;;16.13;5.25;;;;;;;;;;5036642;28;20266;-75
2022/11/24 13:42:56;;;;;;;15.18;5.68;;;;;;;;;;5054744;28;20045;-74
2022/11/24 13:45:52;;;;;;;18.88;4.47;;;;;;;;;;5046658;28;20041;-74
2022/11/24 13:48:18;;;;;;;19.35;4.35;;;;;;;;;;5022008;28;20079;-74
2022/11/24 13:50:53;;;;;;;24.63;4.80;;;;;;;;;;5055450;28;20128;-74
2022/11/24 13:56:36;;;;;;;13.38;4.68;;;;;;;;;;4982700;28;20543;-75
2022/11/24 13:59:15;;;;;;;16.88;4.60;;;;;;;;;;4991340;28;20038;-74
2022/11/24 14:01:43;;;;;;;19.00;6.00;;;;;;;;;;5036753;28;20045;-74
2022/11/24 14:04:12;;;;;;;12.95;5.25;;;;;;;;;;5052422;28;20040;-74
2022/11/24 14:06:41;;;;;;;14.57;4.07;;;;;;;;;;5055594;28;20118;-75
2022/11/24 14:09:18;;;;;;;16.73;4.22;;;;;;;;;;5036092;28;20107;-74
2022/11/24 14:11:54;;;;;;;16.02;3.88;;;;;;;;;;5036697;28;20049;-74
2022/11/24 14:14:21;;;;;;;12.55;4.60;;;;;;;;;;5029822;28;20041;-74
2022/11/24 14:16:47;;;;;;;20.98;4.47;;;;;;;;;;5054171;28;20095;-74
2022/11/24 14:19:18;;;;;;;22.27;5.93;;;;;;;;;;5054728;28;20041;-74
2022/11/24 14:21:45;;;;;;;15.02;4.63;;;;;;;;;;5055116;28;20041;-74
2022/11/24 14:24:12;;;;;;;27.38;5.13;;;;;;;;;;5052618;28;20041;-75
2022/11/24 14:26:40;;;;;;;16.45;4.78;;;;;;;;;;5055412;28;20471;-75
2022/11/24 14:29:20;;;;;;;19.60;4.90;;;;;;;;;;5053957;28;20091;-75
2022/11/24 14:31:58;;;;;;;15.55;5.40;;;;;;;;;;5054979;28;20041;-74
2022/11/24 14:34:25;;;;;;;19.80;5.05;;;;;;;;;;5054392;28;20037;-74
2022/11/24 14:36:55;;;;;;;15.25;3.38;;;;;;;;;;5053930;28;20033;-75
2022/11/24 14:39:22;;;;;;;11.73;5.30;;;;;;;;;;5055406;28;20040;-74
2022/11/24 14:41:55;;;;;;;19.83;4.25;;;;;;;;;;5036735;28;20049;-75
2022/11/24 14:44:25;;;;;;;21.48;4.43;;;;;;;;;;5038594;28;20056;-74
2022/11/24 14:47:00;;;;;;;15.80;5.32;;;;;;;;;;5059555;28;20045;-74
2022/11/24 14:49:27;;;;;;;17.92;5.65;;;;;;;;;;5058951;28;20080;-75
2022/11/24 14:51:57;;;;;;;22.52;6.25;;;;;;;;;;5058247;28;20044;-75
2022/11/24 14:54:23;;;;;;;15.05;3.90;;;;;;;;;;5040526;28;20042;-74
2022/11/24 14:56:59;;;;;;;13.27;5.70;;;;;;;;;;5058422;28;20087;-75
2022/11/24 14:59:27;;;;;;;19.67;5.28;;;;;;;;;;5057788;28;20521;-75
2022/11/24 15:01:53;;;;;;;21.88;6.75;;;;;;;;;;5057088;28;20487;-74
2022/11/24 15:04:27;;;;;;;15.40;4.10;;;;;;;;;;5033419;28;20045;-75
2022/11/24 15:07:04;;;;;;;19.40;5.63;;;;;;;;;;5039431;28;20544;-75
2022/11/24 15:09:30;;;;;;;26.33;7.22;;;;;;;;;;5057462;28;20041;-75
2022/11/24 15:11:57;;;;;;;14.50;4.78;;;;;;;;;;5058158;28;20483;-75
2022/11/24 15:14:35;;;;;;;13.32;3.85;;;;;;;;;;5038790;28;20951;-75
2022/11/24 15:17:01;;;;;;;16.50;6.10;;;;;;;;;;5057325;28;20036;-75
2022/11/24 15:19:31;;;;;;;16.88;3.92;;;;;;;;;;5058295;28;20588;-75